sensor_id;sensor_type;location;lat;lon;timestamp;pressure;altitude;pressure_sealevel;temperature;humidity
2785;BME280;57944;48.722;9.316;2023-07-29T00:00:09;97670.25;;;16.65;100.00
2785;BME280;57944;48.722;9.316;2023-07-29T00:02:43;97669.00;;;16.68;100.00
2785;BME280;57944;48.722;9.316;2023-07-29T00:05:14;97667.28;;;16.73;100.00
2785;BME280;57944;48.722;9.316;2023-07-29T00:07:45;97660.88;;;16.76;100.00
2785;BME280;57944;48.722;9.316;2023-07-29T00:10:16;97665.25;;;16.75;100.00
2785;BME280;57944;48.722;9.316;2023-07-29T00:12:47;97647.31;;;16.81;100.00
2785;BME280;57944;48.722;9.316;2023-07-29T00:15:18;97644.00;;;16.85;100.00
2785;BME280;57944;48.722;9.316;2023-07-29T00:17:51;97656.44;;;16.88;100.00
2785;BME280;57944;48.722;9.316;2023-07-29T00:20:22;97643.06;;;16.91;100.00
2785;BME280;57944;48.722;9.316;2023-07-29T00:22:53;97645.38;;;16.93;100.00
2785;BME280;57944;48.722;9.316;2023-07-29T00:25:25;97643.38;;;16.95;100.00
2785;BME280;57944;48.722;9.316;2023-07-29T00:27:56;97649.06;;;16.97;100.00
2785;BME280;57944;48.722;9.316;2023-07-29T00:30:27;97643.56;;;16.71;100.00
2785;BME280;57944;48.722;9.316;2023-07-29T00:33:01;97651.16;;;16.78;100.00
2785;BME280;57944;48.722;9.316;2023-07-29T00:35:31;97643.78;;;16.87;100.00
2785;BME280;57944;48.722;9.316;2023-07-29T00:38:02;97645.69;;;16.96;100.00
2785;BME280;57944;48.722;9.316;2023-07-29T00:40:35;97640.84;;;17.00;100.00
2785;BME280;57944;48.722;9.316;2023-07-29T00:43:06;97636.19;;;16.97;100.00
2785;BME280;57944;48.722;9.316;2023-07-29T00:45:36;97640.78;;;16.95;100.00
2785;BME280;57944;48.722;9.316;2023-07-29T00:48:10;97633.06;;;16.95;100.00
2785;BME280;57944;48.722;9.316;2023-07-29T00:50:41;97636.66;;;16.94;100.00
2785;BME280;57944;48.722;9.316;2023-07-29T00:53:12;97637.94;;;16.91;100.00
2785;BME280;57944;48.722;9.316;2023-07-29T00:55:40;97639.97;;;16.89;100.00
2785;BME280;57944;48.722;9.316;2023-07-29T00:58:11;97639.19;;;16.89;100.00
2785;BME280;57944;48.722;9.316;2023-07-29T01:00:42;97631.97;;;16.91;100.00
2785;BME280;57944;48.722;9.316;2023-07-29T01:03:16;97635.84;;;16.88;100.00
2785;BME280;57944;48.722;9.316;2023-07-29T01:05:55;97632.78;;;16.91;100.00
2785;BME280;57944;48.722;9.316;2023-07-29T01:08:40;97634.81;;;16.89;100.00
2785;BME280;57944;48.722;9.316;2023-07-29T01:11:30;97637.13;;;16.91;100.00
2785;BME280;57944;48.722;9.316;2023-07-29T01:14:10;97634.03;;;16.89;100.00
2785;BME280;57944;48.722;9.316;2023-07-29T01:16:49;97626.38;;;16.94;100.00
2785;BME280;57944;48.722;9.316;2023-07-29T01:19:39;97622.63;;;17.07;100.00
2785;BME280;57944;48.722;9.316;2023-07-29T01:22:14;97612.59;;;17.05;100.00
2785;BME280;57944;48.722;9.316;2023-07-29T01:24:49;97614.00;;;16.96;100.00
2785;BME280;57944;48.722;9.316;2023-07-29T01:27:20;97614.34;;;17.00;100.00
2785;BME280;57944;48.722;9.316;2023-07-29T01:29:51;97619.50;;;17.05;100.00
2785;BME280;57944;48.722;9.316;2023-07-29T01:32:29;97622.88;;;17.05;100.00
2785;BME280;57944;48.722;9.316;2023-07-29T01:35:07;97618.69;;;16.99;100.00
2785;BME280;57944;48.722;9.316;2023-07-29T01:37:39;97610.94;;;16.94;100.00
2785;BME280;57944;48.722;9.316;2023-07-29T01:40:14;97616.59;;;16.96;100.00
2785;BME280;57944;48.722;9.316;2023-07-29T01:42:45;97617.41;;;17.02;100.00
2785;BME280;57944;48.722;9.316;2023-07-29T01:45:16;97616.94;;;17.05;100.00
2785;BME280;57944;48.722;9.316;2023-07-29T01:47:47;97625.31;;;17.17;100.00
2785;BME280;57944;48.722;9.316;2023-07-29T01:50:18;97621.47;;;17.19;100.00
2785;BME280;57944;48.722;9.316;2023-07-29T01:52:48;97627.13;;;17.22;100.00
2785;BME280;57944;48.722;9.316;2023-07-29T01:55:22;97618.47;;;17.28;100.00
2785;BME280;57944;48.722;9.316;2023-07-29T01:57:53;97613.66;;;17.36;100.00
2785;BME280;57944;48.722;9.316;2023-07-29T02:00:24;97612.63;;;17.37;100.00
2785;BME280;57944;48.722;9.316;2023-07-29T02:02:55;97603.38;;;17.41;100.00
2785;BME280;57944;48.722;9.316;2023-07-29T02:05:26;97602.91;;;17.45;100.00
2785;BME280;57944;48.722;9.316;2023-07-29T02:07:57;97600.00;;;17.41;100.00
2785;BME280;57944;48.722;9.316;2023-07-29T02:10:30;97598.47;;;17.40;100.00
2785;BME280;57944;48.722;9.316;2023-07-29T02:13:01;97598.97;;;17.37;100.00
2785;BME280;57944;48.722;9.316;2023-07-29T02:15:31;97603.88;;;17.38;100.00
2785;BME280;57944;48.722;9.316;2023-07-29T02:18:02;97602.31;;;17.37;100.00
2785;BME280;57944;48.722;9.316;2023-07-29T02:20:34;97595.78;;;17.25;100.00
2785;BME280;57944;48.722;9.316;2023-07-29T02:23:04;97592.50;;;17.07;100.00
2785;BME280;57944;48.722;9.316;2023-07-29T02:25:38;97591.69;;;17.02;100.00
2785;BME280;57944;48.722;9.316;2023-07-29T02:28:09;97587.22;;;16.92;100.00
2785;BME280;57944;48.722;9.316;2023-07-29T02:30:41;97587.69;;;16.89;100.00
2785;BME280;57944;48.722;9.316;2023-07-29T02:33:13;97589.13;;;16.80;100.00
2785;BME280;57944;48.722;9.316;2023-07-29T02:35:44;97577.75;;;16.75;100.00
2785;BME280;57944;48.722;9.316;2023-07-29T02:38:15;97579.06;;;16.56;100.00
2785;BME280;57944;48.722;9.316;2023-07-29T02:40:48;97577.81;;;16.59;100.00
2785;BME280;57944;48.722;9.316;2023-07-29T02:43:18;97582.78;;;16.65;100.00
2785;BME280;57944;48.722;9.316;2023-07-29T02:45:49;97595.13;;;16.63;100.00
2785;BME280;57944;48.722;9.316;2023-07-29T02:48:20;97585.13;;;16.67;100.00
2785;BME280;57944;48.722;9.316;2023-07-29T02:50:50;97578.47;;;16.71;100.00
2785;BME280;57944;48.722;9.316;2023-07-29T02:53:22;97581.09;;;16.76;100.00
2785;BME280;57944;48.722;9.316;2023-07-29T02:55:56;97587.28;;;16.75;100.00
2785;BME280;57944;48.722;9.316;2023-07-29T02:58:26;97576.19;;;16.74;100.00
2785;BME280;57944;48.722;9.316;2023-07-29T03:01:01;97570.75;;;16.71;100.00
2785;BME280;57944;48.722;9.316;2023-07-29T03:03:33;97562.88;;;16.78;100.00
2785;BME280;57944;48.722;9.316;2023-07-29T03:06:05;97563.41;;;16.80;100.00
2785;BME280;57944;48.722;9.316;2023-07-29T03:08:37;97564.47;;;16.84;100.00
2785;BME280;57944;48.722;9.316;2023-07-29T03:11:11;97553.69;;;16.87;100.00
2785;BME280;57944;48.722;9.316;2023-07-29T03:13:42;97555.00;;;16.89;100.00
2785;BME280;57944;48.722;9.316;2023-07-29T03:16:15;97561.53;;;16.97;100.00
2785;BME280;57944;48.722;9.316;2023-07-29T03:18:52;97557.69;;;17.00;100.00
2785;BME280;57944;48.722;9.316;2023-07-29T03:21:22;97556.31;;;16.92;100.00
2785;BME280;57944;48.722;9.316;2023-07-29T03:23:53;97546.53;;;16.89;100.00
2785;BME280;57944;48.722;9.316;2023-07-29T03:26:26;97549.59;;;16.91;100.00
2785;BME280;57944;48.722;9.316;2023-07-29T03:28:57;97542.84;;;16.85;100.00
2785;BME280;57944;48.722;9.316;2023-07-29T03:31:27;97533.09;;;16.87;100.00
2785;BME280;57944;48.722;9.316;2023-07-29T03:33:58;97532.06;;;16.88;100.00
2785;BME280;57944;48.722;9.316;2023-07-29T03:36:29;97530.81;;;16.68;100.00
2785;BME280;57944;48.722;9.316;2023-07-29T03:38:59;97540.13;;;16.69;100.00
2785;BME280;57944;48.722;9.316;2023-07-29T03:41:34;97533.94;;;16.70;100.00
2785;BME280;57944;48.722;9.316;2023-07-29T03:44:04;97541.59;;;16.65;100.00
2785;BME280;57944;48.722;9.316;2023-07-29T03:46:35;97545.75;;;16.66;100.00
2785;BME280;57944;48.722;9.316;2023-07-29T03:49:08;97544.28;;;16.75;100.00
2785;BME280;57944;48.722;9.316;2023-07-29T03:51:39;97540.53;;;16.83;100.00
2785;BME280;57944;48.722;9.316;2023-07-29T03:54:10;97550.41;;;16.91;100.00
2785;BME280;57944;48.722;9.316;2023-07-29T03:56:43;97546.03;;;16.92;100.00
2785;BME280;57944;48.722;9.316;2023-07-29T03:59:13;97539.38;;;16.96;100.00
2785;BME280;57944;48.722;9.316;2023-07-29T04:01:44;97538.94;;;17.04;100.00
2785;BME280;57944;48.722;9.316;2023-07-29T04:04:15;97537.47;;;17.13;100.00
2785;BME280;57944;48.722;9.316;2023-07-29T04:06:45;97546.50;;;17.16;100.00
2785;BME280;57944;48.722;9.316;2023-07-29T04:09:16;97541.06;;;17.12;100.00
2785;BME280;57944;48.722;9.316;2023-07-29T04:11:50;97545.22;;;17.18;100.00
2785;BME280;57944;48.722;9.316;2023-07-29T04:14:21;97540.94;;;17.29;100.00
2785;BME280;57944;48.722;9.316;2023-07-29T04:16:51;97542.66;;;17.18;100.00
2785;BME280;57944;48.722;9.316;2023-07-29T04:19:22;97539.59;;;17.22;100.00
2785;BME280;57944;48.722;9.316;2023-07-29T04:21:53;97543.09;;;17.10;100.00
2785;BME280;57944;48.722;9.316;2023-07-29T04:24:24;97534.84;;;17.08;100.00
2785;BME280;57944;48.722;9.316;2023-07-29T04:26:57;97545.88;;;17.04;100.00
2785;BME280;57944;48.722;9.316;2023-07-29T04:29:28;97535.63;;;17.09;100.00
2785;BME280;57944;48.722;9.316;2023-07-29T04:31:58;97538.44;;;17.07;100.00
2785;BME280;57944;48.722;9.316;2023-07-29T04:34:29;97548.41;;;16.98;100.00
2785;BME280;57944;48.722;9.316;2023-07-29T04:37:00;97561.59;;;17.02;100.00
2785;BME280;57944;48.722;9.316;2023-07-29T04:39:30;97556.94;;;17.04;100.00
2785;BME280;57944;48.722;9.316;2023-07-29T04:42:04;97549.75;;;17.06;100.00
2785;BME280;57944;48.722;9.316;2023-07-29T04:44:35;97551.78;;;17.04;100.00
2785;BME280;57944;48.722;9.316;2023-07-29T04:47:06;97562.53;;;16.96;100.00
2785;BME280;57944;48.722;9.316;2023-07-29T04:49:36;97592.47;;;16.58;100.00
2785;BME280;57944;48.722;9.316;2023-07-29T04:52:08;97567.28;;;16.82;100.00
2785;BME280;57944;48.722;9.316;2023-07-29T04:54:39;97567.94;;;16.94;100.00
2785;BME280;57944;48.722;9.316;2023-07-29T04:57:12;97565.69;;;17.03;100.00
2785;BME280;57944;48.722;9.316;2023-07-29T04:59:43;97577.59;;;17.09;100.00
2785;BME280;57944;48.722;9.316;2023-07-29T05:02:13;97572.50;;;17.14;100.00
2785;BME280;57944;48.722;9.316;2023-07-29T05:04:44;97576.16;;;16.91;100.00
2785;BME280;57944;48.722;9.316;2023-07-29T05:07:14;97575.84;;;16.88;100.00
2785;BME280;57944;48.722;9.316;2023-07-29T05:09:45;97586.69;;;16.90;100.00
2785;BME280;57944;48.722;9.316;2023-07-29T05:12:18;97579.34;;;17.04;100.00
2785;BME280;57944;48.722;9.316;2023-07-29T05:14:49;97567.78;;;17.06;100.00
2785;BME280;57944;48.722;9.316;2023-07-29T05:17:19;97575.22;;;17.03;100.00
2785;BME280;57944;48.722;9.316;2023-07-29T05:19:50;97580.75;;;17.16;100.00
2785;BME280;57944;48.722;9.316;2023-07-29T05:22:21;97573.88;;;17.27;100.00
2785;BME280;57944;48.722;9.316;2023-07-29T05:24:52;97577.31;;;17.33;100.00
2785;BME280;57944;48.722;9.316;2023-07-29T05:27:25;97577.38;;;17.43;100.00
2785;BME280;57944;48.722;9.316;2023-07-29T05:29:56;97569.19;;;17.51;100.00
2785;BME280;57944;48.722;9.316;2023-07-29T05:32:26;97581.56;;;17.54;100.00
2785;BME280;57944;48.722;9.316;2023-07-29T05:34:57;97574.38;;;17.56;100.00
2785;BME280;57944;48.722;9.316;2023-07-29T05:37:28;97574.38;;;17.56;100.00
2785;BME280;57944;48.722;9.316;2023-07-29T05:39:58;97568.00;;;17.64;100.00
2785;BME280;57944;48.722;9.316;2023-07-29T05:42:32;97570.94;;;17.78;100.00
2785;BME280;57944;48.722;9.316;2023-07-29T05:45:03;97568.19;;;17.90;100.00
2785;BME280;57944;48.722;9.316;2023-07-29T05:47:34;97571.09;;;18.03;100.00
2785;BME280;57944;48.722;9.316;2023-07-29T05:50:06;97577.13;;;18.24;100.00
2785;BME280;57944;48.722;9.316;2023-07-29T05:52:37;97571.03;;;18.46;100.00
2785;BME280;57944;48.722;9.316;2023-07-29T05:55:08;97567.19;;;18.48;100.00
2785;BME280;57944;48.722;9.316;2023-07-29T05:57:42;97580.19;;;18.74;100.00
2785;BME280;57944;48.722;9.316;2023-07-29T06:00:13;97573.69;;;18.66;100.00
2785;BME280;57944;48.722;9.316;2023-07-29T06:02:44;97570.91;;;18.83;100.00
2785;BME280;57944;48.722;9.316;2023-07-29T06:05:20;97567.34;;;18.89;100.00
2785;BME280;57944;48.722;9.316;2023-07-29T06:07:51;97562.16;;;19.00;100.00
2785;BME280;57944;48.722;9.316;2023-07-29T06:10:21;97569.41;;;18.97;100.00
2785;BME280;57944;48.722;9.316;2023-07-29T06:12:55;97558.56;;;19.16;100.00
2785;BME280;57944;48.722;9.316;2023-07-29T06:15:25;97556.00;;;19.31;100.00
2785;BME280;57944;48.722;9.316;2023-07-29T06:17:56;97561.44;;;19.35;100.00
2785;BME280;57944;48.722;9.316;2023-07-29T06:20:27;97558.84;;;19.35;100.00
2785;BME280;57944;48.722;9.316;2023-07-29T06:22:57;97558.06;;;19.75;100.00
2785;BME280;57944;48.722;9.316;2023-07-29T06:25:29;97577.00;;;20.51;100.00
2785;BME280;57944;48.722;9.316;2023-07-29T06:28:02;97567.41;;;21.06;100.00
2785;BME280;57944;48.722;9.316;2023-07-29T06:30:33;97568.34;;;21.15;100.00
2785;BME280;57944;48.722;9.316;2023-07-29T06:33:04;97565.09;;;21.34;100.00
2785;BME280;57944;48.722;9.316;2023-07-29T06:35:34;97577.44;;;21.52;100.00
2785;BME280;57944;48.722;9.316;2023-07-29T06:38:05;97585.78;;;22.02;100.00
2785;BME280;57944;48.722;9.316;2023-07-29T06:40:36;97574.75;;;22.16;100.00
2785;BME280;57944;48.722;9.316;2023-07-29T06:43:09;97579.13;;;22.20;100.00
2785;BME280;57944;48.722;9.316;2023-07-29T06:45:39;97578.25;;;22.30;100.00
2785;BME280;57944;48.722;9.316;2023-07-29T06:48:10;97582.50;;;22.21;100.00
2785;BME280;57944;48.722;9.316;2023-07-29T06:50:41;97575.50;;;21.92;100.00
2785;BME280;57944;48.722;9.316;2023-07-29T06:53:11;97572.16;;;21.62;100.00
2785;BME280;57944;48.722;9.316;2023-07-29T06:55:42;97571.22;;;21.14;100.00
2785;BME280;57944;48.722;9.316;2023-07-29T06:58:15;97593.00;;;20.68;100.00
2785;BME280;57944;48.722;9.316;2023-07-29T07:00:45;97588.00;;;20.12;100.00
2785;BME280;57944;48.722;9.316;2023-07-29T07:03:16;97596.31;;;19.63;100.00
2785;BME280;57944;48.722;9.316;2023-07-29T07:05:47;97587.78;;;19.27;100.00
2785;BME280;57944;48.722;9.316;2023-07-29T07:08:17;97588.50;;;18.96;100.00
2785;BME280;57944;48.722;9.316;2023-07-29T07:10:48;97600.50;;;18.60;100.00
2785;BME280;57944;48.722;9.316;2023-07-29T07:13:21;97614.63;;;18.42;100.00
2785;BME280;57944;48.722;9.316;2023-07-29T07:15:54;97615.66;;;18.36;100.00
2785;BME280;57944;48.722;9.316;2023-07-29T07:18:25;97621.28;;;18.28;100.00
2785;BME280;57944;48.722;9.316;2023-07-29T07:20:55;97617.91;;;18.27;100.00
2785;BME280;57944;48.722;9.316;2023-07-29T07:23:26;97626.19;;;18.29;100.00
2785;BME280;57944;48.722;9.316;2023-07-29T07:25:57;97614.47;;;18.12;100.00
2785;BME280;57944;48.722;9.316;2023-07-29T07:28:30;97611.28;;;17.99;100.00
2785;BME280;57944;48.722;9.316;2023-07-29T07:31:00;97608.72;;;17.99;100.00
2785;BME280;57944;48.722;9.316;2023-07-29T07:33:31;97606.38;;;17.93;100.00
2785;BME280;57944;48.722;9.316;2023-07-29T07:36:02;97615.75;;;18.09;100.00
2785;BME280;57944;48.722;9.316;2023-07-29T07:38:32;97622.25;;;18.17;100.00
2785;BME280;57944;48.722;9.316;2023-07-29T07:41:03;97614.63;;;18.37;100.00
2785;BME280;57944;48.722;9.316;2023-07-29T07:43:36;97605.69;;;18.65;100.00
2785;BME280;57944;48.722;9.316;2023-07-29T07:46:07;97608.66;;;18.89;100.00
2785;BME280;57944;48.722;9.316;2023-07-29T07:48:38;97603.25;;;19.16;100.00
2785;BME280;57944;48.722;9.316;2023-07-29T07:51:11;97610.50;;;19.30;100.00
2785;BME280;57944;48.722;9.316;2023-07-29T07:53:42;97609.22;;;19.17;100.00
2785;BME280;57944;48.722;9.316;2023-07-29T07:56:12;97607.13;;;19.04;100.00
2785;BME280;57944;48.722;9.316;2023-07-29T07:58:43;97604.53;;;19.04;100.00
2785;BME280;57944;48.722;9.316;2023-07-29T08:01:14;97607.66;;;19.16;100.00
2785;BME280;57944;48.722;9.316;2023-07-29T08:03:44;97589.84;;;19.35;100.00
2785;BME280;57944;48.722;9.316;2023-07-29T08:06:15;97600.97;;;19.35;100.00
2785;BME280;57944;48.722;9.316;2023-07-29T08:08:46;97603.81;;;19.34;100.00
2785;BME280;57944;48.722;9.316;2023-07-29T08:11:16;97602.00;;;19.50;100.00
2785;BME280;57944;48.722;9.316;2023-07-29T08:13:49;97607.19;;;19.80;100.00
2785;BME280;57944;48.722;9.316;2023-07-29T08:16:20;97609.19;;;20.19;100.00
2785;BME280;57944;48.722;9.316;2023-07-29T08:18:51;97618.66;;;20.49;100.00
2785;BME280;57944;48.722;9.316;2023-07-29T08:21:21;97617.75;;;20.90;100.00
2785;BME280;57944;48.722;9.316;2023-07-29T08:23:52;97619.63;;;21.24;100.00
2785;BME280;57944;48.722;9.316;2023-07-29T08:26:22;97620.81;;;21.76;100.00
2785;BME280;57944;48.722;9.316;2023-07-29T08:28:56;97625.91;;;22.39;100.00
2785;BME280;57944;48.722;9.316;2023-07-29T08:31:26;97616.72;;;23.09;100.00
2785;BME280;57944;48.722;9.316;2023-07-29T08:33:58;97618.53;;;23.93;100.00
2785;BME280;57944;48.722;9.316;2023-07-29T08:36:29;97623.19;;;24.37;100.00
2785;BME280;57944;48.722;9.316;2023-07-29T08:38:59;97630.28;;;25.01;100.00
2785;BME280;57944;48.722;9.316;2023-07-29T08:41:35;97636.38;;;25.32;100.00
2785;BME280;57944;48.722;9.316;2023-07-29T08:44:22;97622.91;;;25.84;100.00
2785;BME280;57944;48.722;9.316;2023-07-29T08:46:53;97621.41;;;25.69;100.00
2785;BME280;57944;48.722;9.316;2023-07-29T08:49:25;97633.28;;;26.06;100.00
2785;BME280;57944;48.722;9.316;2023-07-29T08:51:58;97625.03;;;26.88;100.00
2785;BME280;57944;48.722;9.316;2023-07-29T08:54:28;97632.53;;;26.63;100.00
2785;BME280;57944;48.722;9.316;2023-07-29T08:56:59;97626.78;;;27.36;100.00
2785;BME280;57944;48.722;9.316;2023-07-29T08:59:33;97629.34;;;28.09;99.80
2785;BME280;57944;48.722;9.316;2023-07-29T09:02:04;97623.16;;;27.58;99.09
2785;BME280;57944;48.722;9.316;2023-07-29T09:04:34;97631.59;;;27.90;100.00
2785;BME280;57944;48.722;9.316;2023-07-29T09:07:06;97626.38;;;28.79;94.76
2785;BME280;57944;48.722;9.316;2023-07-29T09:09:37;97623.47;;;29.68;85.52
2785;BME280;57944;48.722;9.316;2023-07-29T09:12:09;97625.94;;;30.34;81.44
2785;BME280;57944;48.722;9.316;2023-07-29T09:14:42;97621.31;;;30.96;75.94
2785;BME280;57944;48.722;9.316;2023-07-29T09:17:13;97621.72;;;31.10;68.72
2785;BME280;57944;48.722;9.316;2023-07-29T09:19:48;97608.25;;;30.47;73.42
2785;BME280;57944;48.722;9.316;2023-07-29T09:22:19;97604.22;;;29.88;75.12
2785;BME280;57944;48.722;9.316;2023-07-29T09:24:50;97607.31;;;29.57;80.42
2785;BME280;57944;48.722;9.316;2023-07-29T09:27:25;97596.53;;;29.83;74.11
2785;BME280;57944;48.722;9.316;2023-07-29T09:30:00;97599.84;;;30.94;73.21
2785;BME280;57944;48.722;9.316;2023-07-29T09:32:31;97602.81;;;31.96;61.62
2785;BME280;57944;48.722;9.316;2023-07-29T09:35:02;97597.19;;;31.66;60.70
2785;BME280;57944;48.722;9.316;2023-07-29T09:37:33;97592.00;;;31.54;66.30
2785;BME280;57944;48.722;9.316;2023-07-29T09:40:04;97592.41;;;31.56;59.14
2785;BME280;57944;48.722;9.316;2023-07-29T09:42:35;97585.03;;;30.37;67.11
2785;BME280;57944;48.722;9.316;2023-07-29T09:45:09;97580.44;;;30.86;65.15
2785;BME280;57944;48.722;9.316;2023-07-29T09:47:40;97577.94;;;30.78;66.60
2785;BME280;57944;48.722;9.316;2023-07-29T09:50:10;97580.34;;;29.69;70.61
2785;BME280;57944;48.722;9.316;2023-07-29T09:52:42;97601.81;;;30.32;66.58
2785;BME280;57944;48.722;9.316;2023-07-29T09:55:13;97602.53;;;31.26;59.08
2785;BME280;57944;48.722;9.316;2023-07-29T09:57:47;97597.41;;;33.61;51.34
2785;BME280;57944;48.722;9.316;2023-07-29T10:00:21;97584.00;;;33.27;53.19
2785;BME280;57944;48.722;9.316;2023-07-29T10:02:52;97580.69;;;32.01;56.97
2785;BME280;57944;48.722;9.316;2023-07-29T10:05:25;97575.97;;;31.31;57.62
2785;BME280;57944;48.722;9.316;2023-07-29T10:07:56;97572.75;;;30.93;71.15
2785;BME280;57944;48.722;9.316;2023-07-29T10:10:28;97568.44;;;31.93;60.68
2785;BME280;57944;48.722;9.316;2023-07-29T10:12:59;97572.28;;;32.31;53.91
2785;BME280;57944;48.722;9.316;2023-07-29T10:15:33;97575.03;;;32.73;49.58
2785;BME280;57944;48.722;9.316;2023-07-29T10:18:04;97567.59;;;31.89;54.91
2785;BME280;57944;48.722;9.316;2023-07-29T10:20:35;97573.84;;;31.21;57.73
2785;BME280;57944;48.722;9.316;2023-07-29T10:23:07;97567.94;;;31.55;56.96
2785;BME280;57944;48.722;9.316;2023-07-29T10:25:45;97566.09;;;30.19;63.32
2785;BME280;57944;48.722;9.316;2023-07-29T10:28:19;97556.81;;;30.09;74.16
2785;BME280;57944;48.722;9.316;2023-07-29T10:30:53;97552.88;;;32.39;56.31
2785;BME280;57944;48.722;9.316;2023-07-29T10:33:25;97567.94;;;31.71;55.46
2785;BME280;57944;48.722;9.316;2023-07-29T10:35:56;97565.44;;;30.46;60.07
2785;BME280;57944;48.722;9.316;2023-07-29T10:38:27;97552.78;;;29.87;58.31
2785;BME280;57944;48.722;9.316;2023-07-29T10:40:58;97558.22;;;29.94;63.06
2785;BME280;57944;48.722;9.316;2023-07-29T10:43:33;97553.31;;;29.93;60.48
2785;BME280;57944;48.722;9.316;2023-07-29T10:46:18;97559.72;;;30.20;61.04
2785;BME280;57944;48.722;9.316;2023-07-29T10:48:54;97568.56;;;29.08;61.19
2785;BME280;57944;48.722;9.316;2023-07-29T10:51:27;97551.66;;;30.00;53.05
2785;BME280;57944;48.722;9.316;2023-07-29T10:54:01;97558.34;;;29.73;52.35
2785;BME280;57944;48.722;9.316;2023-07-29T10:56:33;97554.28;;;30.13;49.90
2785;BME280;57944;48.722;9.316;2023-07-29T10:59:32;97554.38;;;31.25;48.35
2785;BME280;57944;48.722;9.316;2023-07-29T11:02:15;97554.03;;;33.42;41.49
2785;BME280;57944;48.722;9.316;2023-07-29T11:04:49;97552.03;;;33.12;43.79
2785;BME280;57944;48.722;9.316;2023-07-29T11:07:21;97548.25;;;33.10;42.88
2785;BME280;57944;48.722;9.316;2023-07-29T11:09:59;97553.88;;;32.50;43.80
2785;BME280;57944;48.722;9.316;2023-07-29T11:12:38;97560.16;;;31.15;46.09
2785;BME280;57944;48.722;9.316;2023-07-29T11:15:16;97563.69;;;28.35;49.58
2785;BME280;57944;48.722;9.316;2023-07-29T11:17:51;97564.97;;;27.52;67.06
2785;BME280;57944;48.722;9.316;2023-07-29T11:20:24;97570.63;;;27.80;53.04
2785;BME280;57944;48.722;9.316;2023-07-29T11:22:55;97558.16;;;28.07;50.34
2785;BME280;57944;48.722;9.316;2023-07-29T11:25:28;97567.66;;;28.20;58.00
2785;BME280;57944;48.722;9.316;2023-07-29T11:28:00;97568.28;;;28.17;64.93
2785;BME280;57944;48.722;9.316;2023-07-29T11:30:33;97569.63;;;28.53;62.31
2785;BME280;57944;48.722;9.316;2023-07-29T11:33:07;97571.44;;;29.15;60.07
2785;BME280;57944;48.722;9.316;2023-07-29T11:35:38;97561.41;;;29.63;58.48
2785;BME280;57944;48.722;9.316;2023-07-29T11:38:14;97562.41;;;29.71;56.01
2785;BME280;57944;48.722;9.316;2023-07-29T11:40:55;97559.13;;;29.74;59.29
2785;BME280;57944;48.722;9.316;2023-07-29T11:43:25;97562.28;;;30.04;56.54
2785;BME280;57944;48.722;9.316;2023-07-29T11:45:57;97548.94;;;30.62;52.89
2785;BME280;57944;48.722;9.316;2023-07-29T11:48:34;97554.22;;;32.13;48.17
2785;BME280;57944;48.722;9.316;2023-07-29T11:51:04;97535.78;;;32.13;42.80
2785;BME280;57944;48.722;9.316;2023-07-29T11:53:35;97545.84;;;31.92;47.39
2785;BME280;57944;48.722;9.316;2023-07-29T11:56:06;97545.88;;;33.28;41.75
2785;BME280;57944;48.722;9.316;2023-07-29T11:58:37;97532.78;;;32.92;40.44
2785;BME280;57944;48.722;9.316;2023-07-29T12:01:08;97540.59;;;32.85;38.29
2785;BME280;57944;48.722;9.316;2023-07-29T12:03:43;97538.50;;;32.01;39.85
2785;BME280;57944;48.722;9.316;2023-07-29T12:06:14;97539.34;;;30.54;40.94
2785;BME280;57944;48.722;9.316;2023-07-29T12:08:45;97546.44;;;30.93;40.73
2785;BME280;57944;48.722;9.316;2023-07-29T12:11:17;97529.09;;;32.19;37.33
2785;BME280;57944;48.722;9.316;2023-07-29T12:13:48;97534.56;;;31.59;37.63
2785;BME280;57944;48.722;9.316;2023-07-29T12:16:19;97522.47;;;31.74;38.72
2785;BME280;57944;48.722;9.316;2023-07-29T12:18:53;97526.63;;;31.91;38.25
2785;BME280;57944;48.722;9.316;2023-07-29T12:21:23;97527.28;;;32.04;38.55
2785;BME280;57944;48.722;9.316;2023-07-29T12:23:54;97521.47;;;32.92;36.14
2785;BME280;57944;48.722;9.316;2023-07-29T12:26:28;97529.47;;;33.61;34.63
2785;BME280;57944;48.722;9.316;2023-07-29T12:28:59;97524.69;;;33.70;33.79
2785;BME280;57944;48.722;9.316;2023-07-29T12:31:32;97530.16;;;33.12;35.70
2785;BME280;57944;48.722;9.316;2023-07-29T12:34:05;97527.69;;;32.61;36.92
2785;BME280;57944;48.722;9.316;2023-07-29T12:36:43;97507.47;;;32.30;37.52
2785;BME280;57944;48.722;9.316;2023-07-29T12:39:20;97513.53;;;32.69;38.00
2785;BME280;57944;48.722;9.316;2023-07-29T12:41:52;97516.84;;;31.76;38.21
2785;BME280;57944;48.722;9.316;2023-07-29T12:44:24;97518.31;;;31.73;38.21
2785;BME280;57944;48.722;9.316;2023-07-29T12:46:54;97526.72;;;31.79;38.11
2785;BME280;57944;48.722;9.316;2023-07-29T12:49:28;97525.06;;;32.06;38.15
2785;BME280;57944;48.722;9.316;2023-07-29T12:51:59;97526.97;;;32.25;37.19
2785;BME280;57944;48.722;9.316;2023-07-29T12:54:30;97523.41;;;31.50;37.56
2785;BME280;57944;48.722;9.316;2023-07-29T12:57:00;97532.88;;;31.51;38.30
2785;BME280;57944;48.722;9.316;2023-07-29T12:59:31;97539.50;;;31.17;38.76
2785;BME280;57944;48.722;9.316;2023-07-29T13:02:01;97533.00;;;31.90;37.04
2785;BME280;57944;48.722;9.316;2023-07-29T13:04:37;97535.97;;;30.69;40.04
2785;BME280;57944;48.722;9.316;2023-07-29T13:07:07;97524.59;;;30.65;40.43
2785;BME280;57944;48.722;9.316;2023-07-29T13:09:38;97523.00;;;29.95;41.49
2785;BME280;57944;48.722;9.316;2023-07-29T13:12:08;97523.94;;;30.40;41.23
2785;BME280;57944;48.722;9.316;2023-07-29T13:14:39;97517.31;;;30.46;40.95
2785;BME280;57944;48.722;9.316;2023-07-29T13:17:10;97525.03;;;30.67;40.83
2785;BME280;57944;48.722;9.316;2023-07-29T13:19:43;97528.16;;;31.45;39.84
2785;BME280;57944;48.722;9.316;2023-07-29T13:22:13;97528.09;;;30.69;40.19
2785;BME280;57944;48.722;9.316;2023-07-29T13:24:44;97524.47;;;30.21;41.30
2785;BME280;57944;48.722;9.316;2023-07-29T13:27:14;97527.56;;;29.86;42.54
2785;BME280;57944;48.722;9.316;2023-07-29T13:29:45;97527.25;;;31.09;41.22